KVLD/VLD METAR and TAF weather

Enter ICAO airport designator
Station Type Date Time Source
KVLD METAR 2022/07/03 14:53 UTC NOAA

KVLD 031453Z AUTO 36005KT 10SM CLR 31/23 A3012 RMK AO2 SLP204 T03060228 58000


Station Type Date Time Source
KVLD Decoded METAR 2022/07/03 14:53 UTC NOAA

VALDOSTA REGIONAL AIRPORT, GA, United States (KVLD) 30-47N 083-16W
Jul 03, 2022 - 10:53 AM EDT / 2022.07.03 1453 UTC
Wind: from the N (360 degrees) at 6 MPH (5 KT):0
Visibility: 10 mile(s):0
Sky conditions: clear
Temperature: 87.1 F (30.6 C)
Heat index: 94.5 F (34.7 C):1
Dew Point: 73.0 F (22.8 C)
Relative Humidity: 63%
Pressure (altimeter): 30.12 in. Hg (1019 hPa)
Pressure tendency: 0.00 inches (0.0 hPa) lower than three hours ago
ob: KVLD 031453Z AUTO 36005KT 10SM CLR 31/23 A3012 RMK AO2 SLP204 T03060228 58000
cycle: 15

Station Type Date Time Source
KVLD TAF 2022/07/03 12:22 UTC NOAA

TAF KVLD 031120Z 0312/0412 32003KT P6SM SCT030
FM031800 25005KT P6SM VCTS BKN040CB
TEMPO 0319/0323 -TSRA BKN025CB
FM040100 VRB03KT P6SM BKN100

Example: see airport list